createdAt,value
2018-05-09T00:02:28.208Z,86.60
2018-05-09T00:05:02.539Z,86.70
2018-05-09T00:07:36.264Z,86.60
2018-05-09T00:10:10.570Z,86.90
2018-05-09T00:12:44.265Z,86.80
2018-05-09T00:15:17.867Z,86.90
2018-05-09T00:17:51.408Z,86.30
2018-05-09T00:20:25.092Z,86.70
2018-05-09T00:22:58.681Z,87.60
2018-05-09T00:25:32.229Z,87.70
2018-05-09T00:28:05.945Z,86.90
2018-05-09T00:30:39.556Z,86.50
2018-05-09T00:33:13.139Z,86.20
2018-05-09T00:35:46.860Z,86.00
2018-05-09T00:38:20.408Z,85.50
2018-05-09T00:40:53.931Z,88.10
2018-05-09T00:43:28.297Z,87.20
2018-05-09T00:46:01.994Z,87.20
2018-05-09T00:48:35.561Z,87.00
2018-05-09T00:51:09.200Z,87.20
2018-05-09T00:53:42.820Z,87.30
2018-05-09T00:56:16.484Z,87.10
2018-05-09T00:58:50.038Z,87.20
2018-05-09T01:01:23.625Z,87.50
2018-05-09T01:03:57.911Z,88.00
2018-05-09T01:06:31.639Z,88.00
2018-05-09T01:09:06.259Z,88.90
2018-05-09T01:11:39.958Z,89.50
2018-05-09T01:14:13.527Z,89.60
2018-05-09T01:16:47.141Z,88.70
2018-05-09T01:19:20.650Z,90.20
2018-05-09T01:21:55.060Z,90.60
2018-05-09T01:24:29.369Z,90.90
2018-05-09T01:27:03.076Z,90.90
2018-05-09T01:29:37.713Z,90.60
2018-05-09T01:32:11.486Z,90.60
2018-05-09T01:34:45.224Z,91.00
2018-05-09T01:37:18.751Z,91.50
2018-05-09T01:39:52.311Z,91.50
2018-05-09T01:42:26.607Z,93.10
2018-05-09T01:45:00.120Z,93.00
2018-05-09T01:47:33.712Z,94.00
2018-05-09T01:50:07.242Z,93.40
2018-05-09T01:52:40.795Z,92.90
2018-05-09T01:55:14.609Z,93.90
2018-05-09T01:57:49.150Z,93.60
2018-05-09T02:00:23.568Z,93.60
2018-05-09T02:02:57.891Z,93.80
2018-05-09T02:05:31.501Z,93.50
2018-05-09T02:08:05.069Z,94.10
2018-05-09T02:10:39.415Z,95.10
2018-05-09T02:13:13.112Z,95.10
2018-05-09T02:15:46.679Z,95.90
2018-05-09T02:18:21.038Z,95.80
2018-05-09T02:20:54.740Z,95.70
2018-05-09T02:23:28.310Z,95.30
2018-05-09T02:26:01.925Z,94.60
2018-05-09T02:28:35.445Z,96.20
2018-05-09T02:31:09.118Z,96.80
2018-05-09T02:33:42.579Z,96.80
2018-05-09T02:36:16.145Z,96.90
2018-05-09T02:38:49.748Z,96.80
2018-05-09T02:41:23.268Z,95.90
2018-05-09T02:43:56.856Z,95.50
2018-05-09T02:46:30.435Z,95.10
2018-05-09T02:49:03.961Z,94.70
2018-05-09T02:51:37.491Z,94.90
2018-05-09T02:54:11.340Z,95.10
2018-05-09T02:56:44.924Z,95.10
2018-05-09T02:59:18.484Z,95.80
2018-05-09T03:01:52.139Z,95.70
2018-05-09T03:04:25.733Z,96.70
2018-05-09T03:06:59.313Z,97.60
2018-05-09T03:09:32.889Z,98.60
2018-05-09T03:12:06.434Z,97.30
2018-05-09T03:14:39.995Z,97.00
2018-05-09T03:17:13.788Z,97.60
2018-05-09T03:19:47.375Z,97.70
2018-05-09T03:22:21.815Z,97.70
2018-05-09T03:24:55.571Z,98.20
2018-05-09T03:27:29.904Z,96.80
2018-05-09T03:30:03.519Z,96.70
2018-05-09T03:32:37.931Z,98.80
2018-05-09T03:35:11.572Z,98.50
2018-05-09T03:37:46.021Z,98.60
2018-05-09T03:40:19.749Z,98.50
2018-05-09T03:42:53.355Z,98.20
2018-05-09T03:45:27.856Z,98.30
2018-05-09T03:48:01.637Z,98.30
2018-05-09T03:50:35.139Z,98.10
2018-05-09T03:53:08.762Z,98.10
2018-05-09T03:55:42.278Z,98.30
2018-05-09T03:58:15.860Z,98.40
2018-05-09T04:00:49.391Z,99.10
2018-05-09T04:03:34.910Z,99.50
2018-05-09T04:06:20.316Z,99.90
2018-05-09T04:09:06.464Z,99.90
2018-05-09T04:11:40.007Z,99.90
2018-05-09T04:14:13.612Z,99.90
2018-05-09T04:16:47.153Z,99.90
2018-05-09T04:19:20.770Z,99.90
2018-05-09T04:21:54.365Z,99.90
2018-05-09T04:24:28.740Z,99.90
2018-05-09T04:27:02.426Z,99.90
2018-05-09T04:29:36.750Z,99.50
2018-05-09T04:32:10.435Z,99.40
2018-05-09T04:34:44.069Z,99.40
2018-05-09T04:37:17.692Z,99.30
2018-05-09T04:39:51.238Z,99.00
2018-05-09T04:42:25.576Z,98.70
2018-05-09T04:44:59.260Z,98.70
2018-05-09T04:47:32.893Z,98.60
2018-05-09T04:50:06.464Z,98.60
2018-05-09T04:52:40.021Z,98.20
2018-05-09T04:55:13.832Z,98.80
2018-05-09T04:57:47.399Z,99.90
2018-05-09T05:00:21.012Z,99.90
2018-05-09T05:02:54.586Z,99.90
2018-05-09T05:05:28.125Z,99.90
2018-05-09T05:08:02.584Z,99.90
2018-05-09T05:10:36.118Z,99.90
2018-05-09T05:13:09.698Z,99.90
2018-05-09T05:15:43.312Z,99.90
2018-05-09T05:18:16.822Z,99.90
2018-05-09T05:20:50.401Z,99.90
2018-05-09T05:23:24.944Z,99.90
2018-05-09T05:25:59.446Z,99.90
2018-05-09T05:28:33.858Z,99.90
2018-05-09T05:31:07.474Z,99.90
2018-05-09T05:33:41.068Z,99.90
2018-05-09T05:36:14.660Z,99.90
2018-05-09T05:38:48.321Z,99.90
2018-05-09T05:41:21.811Z,99.90
2018-05-09T05:43:55.344Z,99.90
2018-05-09T05:46:29.684Z,99.90
2018-05-09T05:49:03.414Z,99.90
2018-05-09T05:51:36.980Z,99.90
2018-05-09T05:54:10.738Z,99.90
2018-05-09T05:56:45.124Z,99.90
2018-05-09T05:59:18.847Z,99.90
2018-05-09T06:01:52.412Z,99.90
2018-05-09T06:04:25.940Z,99.90
2018-05-09T06:06:59.487Z,99.90
2018-05-09T06:09:33.043Z,99.90
2018-05-09T06:12:06.625Z,99.90
2018-05-09T06:14:40.145Z,99.90
2018-05-09T06:17:14.559Z,99.90
2018-05-09T06:19:48.111Z,99.90
2018-05-09T06:22:21.640Z,99.90
2018-05-09T06:24:55.253Z,99.90
2018-05-09T06:27:28.955Z,99.90
2018-05-09T06:30:02.796Z,99.90
2018-05-09T06:32:36.528Z,99.90
2018-05-09T06:35:10.107Z,99.90
2018-05-09T06:37:44.466Z,99.90
2018-05-09T06:40:17.995Z,99.90
2018-05-09T06:42:51.528Z,99.90
2018-05-09T06:45:25.063Z,99.90
2018-05-09T06:47:58.581Z,99.90
2018-05-09T06:50:32.884Z,99.90
2018-05-09T06:53:06.590Z,99.90
2018-05-09T06:55:40.173Z,99.90
2018-05-09T06:58:13.712Z,99.90
2018-05-09T07:00:47.287Z,99.90
2018-05-09T07:03:20.875Z,99.90
2018-05-09T07:05:54.463Z,99.80
2018-05-09T07:08:27.963Z,99.80
2018-05-09T07:11:01.503Z,99.00
2018-05-09T07:13:35.087Z,99.00
2018-05-09T07:16:08.795Z,98.20
2018-05-09T07:18:42.379Z,97.70
2018-05-09T07:21:15.925Z,98.00
2018-05-09T07:23:49.592Z,96.60
2018-05-09T07:26:23.187Z,96.70
2018-05-09T07:28:56.701Z,97.10
2018-05-09T07:31:30.246Z,97.30
2018-05-09T07:34:03.836Z,96.90
2018-05-09T07:36:37.390Z,97.30
2018-05-09T07:39:11.711Z,95.60
2018-05-09T07:41:45.216Z,95.60
2018-05-09T07:44:18.793Z,96.90
2018-05-09T07:46:52.348Z,96.60
2018-05-09T07:49:25.864Z,96.50
2018-05-09T07:52:00.224Z,95.00
2018-05-09T07:54:33.877Z,95.00
2018-05-09T07:57:07.550Z,95.20
2018-05-09T07:59:41.096Z,95.40
2018-05-09T08:02:14.681Z,94.50
2018-05-09T08:04:48.231Z,93.60
2018-05-09T08:07:22.651Z,92.70
2018-05-09T08:09:56.253Z,92.60
2018-05-09T08:12:29.791Z,91.80
2018-05-09T08:15:03.352Z,91.20
2018-05-09T08:17:36.939Z,92.30
2018-05-09T08:20:10.484Z,91.40
2018-05-09T08:22:44.168Z,90.90
2018-05-09T08:25:17.746Z,90.40
2018-05-09T08:27:51.294Z,90.50
2018-05-09T08:30:24.857Z,90.20
2018-05-09T08:32:58.443Z,91.70
2018-05-09T08:35:32.044Z,91.90
2018-05-09T08:38:05.598Z,90.90
2018-05-09T08:40:39.125Z,90.30
2018-05-09T08:43:12.781Z,90.10
2018-05-09T08:45:46.356Z,90.10
2018-05-09T08:48:19.879Z,88.80
2018-05-09T08:50:53.415Z,87.30
2018-05-09T08:53:27.098Z,86.90
2018-05-09T08:56:01.380Z,85.50
2018-05-09T08:58:35.693Z,83.60
2018-05-09T09:01:10.008Z,84.70
2018-05-09T09:03:43.727Z,84.60
2018-05-09T09:06:17.243Z,85.80
2018-05-09T09:08:50.821Z,84.10
2018-05-09T09:11:24.394Z,82.60
2018-05-09T09:13:57.953Z,81.90
2018-05-09T09:16:31.493Z,82.00
2018-05-09T09:19:04.995Z,82.00
2018-05-09T09:21:39.308Z,81.30
2018-05-09T09:24:12.994Z,81.10
2018-05-09T09:26:46.563Z,81.00
2018-05-09T09:29:20.228Z,79.30
2018-05-09T09:31:53.638Z,77.20
2018-05-09T09:34:27.180Z,78.10
2018-05-09T09:37:00.836Z,78.20
2018-05-09T09:39:34.362Z,78.10
2018-05-09T09:42:07.932Z,73.90
2018-05-09T09:44:41.441Z,73.40
2018-05-09T09:47:15.021Z,68.80
2018-05-09T09:49:48.560Z,70.10
2018-05-09T09:52:22.116Z,73.20
2018-05-09T09:54:55.615Z,74.90
2018-05-09T09:57:29.931Z,75.30
2018-05-09T10:00:03.690Z,75.30
2018-05-09T10:02:37.256Z,73.50
2018-05-09T10:05:10.824Z,73.20
2018-05-09T10:07:44.368Z,73.00
2018-05-09T10:10:17.921Z,72.40
2018-05-09T10:12:51.477Z,72.80
2018-05-09T10:15:25.058Z,71.50
2018-05-09T10:17:58.631Z,70.60
2018-05-09T10:20:32.213Z,71.30
2018-05-09T10:23:06.570Z,70.80
2018-05-09T10:25:40.905Z,69.10
2018-05-09T10:28:15.192Z,66.20
2018-05-09T10:30:48.837Z,66.10
2018-05-09T10:33:23.128Z,65.60
2018-05-09T10:35:56.740Z,66.20
2018-05-09T10:38:30.297Z,63.00
2018-05-09T10:41:04.016Z,63.40
2018-05-09T10:43:37.677Z,61.30
2018-05-09T10:46:11.563Z,60.50
2018-05-09T10:48:45.108Z,61.20
2018-05-09T10:51:18.690Z,62.30
2018-05-09T10:53:52.260Z,61.00
2018-05-09T10:56:25.815Z,58.90
2018-05-09T10:59:00.140Z,57.70
2018-05-09T11:01:34.558Z,59.40
2018-05-09T11:04:08.154Z,59.30
2018-05-09T11:06:41.708Z,58.10
2018-05-09T11:09:15.281Z,57.20
2018-05-09T11:11:48.864Z,55.80
2018-05-09T11:14:22.447Z,54.80
2018-05-09T11:16:55.984Z,54.60
2018-05-09T11:19:29.657Z,55.80
2018-05-09T11:22:03.263Z,62.00
2018-05-09T11:24:36.826Z,64.30
2018-05-09T11:27:10.294Z,64.10
2018-05-09T11:29:43.979Z,63.70
2018-05-09T11:32:18.425Z,62.00
2018-05-09T11:34:53.408Z,61.30
2018-05-09T11:37:27.058Z,61.20
2018-05-09T11:40:00.624Z,62.00
2018-05-09T11:42:34.391Z,61.60
2018-05-09T11:45:07.966Z,60.30
2018-05-09T11:47:41.525Z,59.80
2018-05-09T11:50:15.128Z,60.60
2018-05-09T11:52:48.721Z,64.00
2018-05-09T11:55:22.331Z,70.20
2018-05-09T11:57:55.919Z,76.30
2018-05-09T12:00:29.551Z,87.80
2018-05-09T12:03:03.062Z,91.60
2018-05-09T12:05:36.602Z,90.90
2018-05-09T12:08:10.231Z,92.20
2018-05-09T12:10:43.821Z,91.70
2018-05-09T12:13:17.361Z,92.30
2018-05-09T12:15:50.942Z,91.90
2018-05-09T12:18:24.517Z,95.70
2018-05-09T12:20:58.148Z,94.30
2018-05-09T12:23:31.731Z,92.40
2018-05-09T12:26:05.637Z,92.20
2018-05-09T12:28:39.334Z,92.20
2018-05-09T12:31:13.654Z,91.90
2018-05-09T12:33:47.393Z,91.90
2018-05-09T12:36:21.023Z,92.00
2018-05-09T12:38:54.481Z,93.10
2018-05-09T12:41:28.088Z,92.90
2018-05-09T12:44:01.646Z,92.90
2018-05-09T12:46:35.201Z,92.80
2018-05-09T12:49:08.768Z,93.40
2018-05-09T12:51:42.362Z,93.00
2018-05-09T12:54:15.865Z,93.30
2018-05-09T12:56:49.469Z,91.70
2018-05-09T12:59:23.773Z,90.70
2018-05-09T13:01:57.453Z,90.60
2018-05-09T13:04:32.115Z,91.00
2018-05-09T13:07:05.675Z,90.90
2018-05-09T13:09:40.013Z,92.30
2018-05-09T13:12:13.623Z,92.10
2018-05-09T13:14:47.952Z,94.90
2018-05-09T13:17:22.367Z,98.00
2018-05-09T13:19:55.888Z,98.00
2018-05-09T13:22:29.429Z,98.10
2018-05-09T13:25:03.010Z,97.40
2018-05-09T13:27:37.291Z,95.00
2018-05-09T13:30:11.719Z,94.90
2018-05-09T13:32:45.404Z,94.80
2018-05-09T13:35:19.046Z,94.80
2018-05-09T13:37:52.593Z,94.60
2018-05-09T13:40:26.141Z,95.30
2018-05-09T13:42:59.700Z,95.00
2018-05-09T13:45:33.223Z,96.30
2018-05-09T13:48:06.828Z,96.20
2018-05-09T13:50:40.370Z,96.80
2018-05-09T13:53:14.100Z,95.70
2018-05-09T13:55:47.703Z,94.40
2018-05-09T13:58:22.007Z,93.80
2018-05-09T14:00:55.648Z,93.80
2018-05-09T14:03:29.333Z,93.00
2018-05-09T14:06:02.851Z,86.60
2018-05-09T14:08:36.398Z,87.80
2018-05-09T14:11:09.984Z,87.70
2018-05-09T14:13:43.524Z,88.90
2018-05-09T14:16:17.145Z,86.40
2018-05-09T14:18:50.710Z,82.20
2018-05-09T14:21:24.196Z,83.40
2018-05-09T14:23:57.723Z,85.10
2018-05-09T14:26:31.236Z,82.30
2018-05-09T14:29:04.772Z,84.50
2018-05-09T14:31:38.329Z,83.60
2018-05-09T14:34:11.948Z,81.90
2018-05-09T14:36:46.242Z,75.50
2018-05-09T14:39:20.842Z,75.50
2018-05-09T14:41:54.562Z,75.70
2018-05-09T14:44:28.170Z,76.20
2018-05-09T14:47:01.674Z,69.90
2018-05-09T14:49:35.254Z,69.10
2018-05-09T14:52:09.578Z,66.60
2018-05-09T14:54:43.148Z,66.50
2018-05-09T14:57:16.797Z,67.20
2018-05-09T14:59:51.110Z,58.90
2018-05-09T15:02:24.820Z,58.90
2018-05-09T15:04:58.398Z,59.60
2018-05-09T15:07:32.716Z,59.70
2018-05-09T15:10:06.305Z,59.50
2018-05-09T15:12:39.905Z,57.80
2018-05-09T15:15:13.418Z,59.60
2018-05-09T15:17:46.952Z,59.60
2018-05-09T15:20:20.575Z,57.80
2018-05-09T15:22:54.137Z,58.80
2018-05-09T15:25:27.691Z,58.60
2018-05-09T15:28:01.235Z,59.30
2018-05-09T15:30:34.852Z,59.90
2018-05-09T15:33:08.365Z,62.90
2018-05-09T15:35:41.961Z,63.90
2018-05-09T15:38:16.339Z,62.50
2018-05-09T15:40:50.660Z,61.10
2018-05-09T15:43:24.372Z,61.10
2018-05-09T15:45:57.976Z,61.90
2018-05-09T15:48:31.583Z,61.80
2018-05-09T15:51:05.164Z,62.50
2018-05-09T15:53:38.693Z,62.90
2018-05-09T15:56:12.191Z,63.20
2018-05-09T15:58:45.766Z,61.80
2018-05-09T16:01:20.047Z,59.70
2018-05-09T16:03:53.735Z,59.30
2018-05-09T16:06:27.317Z,60.60
2018-05-09T16:09:00.873Z,62.20
2018-05-09T16:11:34.392Z,63.80
2018-05-09T16:14:08.724Z,62.60
2018-05-09T16:16:43.108Z,61.60
2018-05-09T16:19:16.808Z,61.50
2018-05-09T16:21:50.360Z,62.50
2018-05-09T16:24:23.907Z,63.00
2018-05-09T16:26:57.444Z,64.70
2018-05-09T16:29:30.974Z,65.40
2018-05-09T16:32:04.636Z,67.90
2018-05-09T16:34:38.269Z,69.70
2018-05-09T16:37:11.813Z,71.70
2018-05-09T16:39:45.416Z,72.70
2018-05-09T16:42:18.985Z,73.40
2018-05-09T16:44:52.799Z,73.50
2018-05-09T16:47:26.357Z,73.50
2018-05-09T16:49:59.912Z,73.80
2018-05-09T16:52:33.417Z,73.30
2018-05-09T16:55:07.032Z,72.80
2018-05-09T16:57:41.342Z,71.20
2018-05-09T17:00:15.072Z,71.10
2018-05-09T17:02:48.655Z,71.30
2018-05-09T17:05:22.203Z,72.20
2018-05-09T17:07:56.665Z,72.00
2018-05-09T17:10:30.384Z,72.00
2018-05-09T17:13:05.472Z,67.10
2018-05-09T17:15:39.133Z,67.00
2018-05-09T17:18:12.752Z,69.80
2018-05-09T17:20:46.332Z,67.90
2018-05-09T17:23:20.641Z,65.30
2018-05-09T17:25:54.177Z,65.10
2018-05-09T17:28:28.645Z,64.90
2018-05-09T17:31:02.263Z,64.80
2018-05-09T17:33:35.844Z,66.70
2018-05-09T17:36:09.447Z,68.60
2018-05-09T17:38:43.043Z,69.00
2018-05-09T17:41:16.591Z,69.50
2018-05-09T17:43:50.151Z,70.70
2018-05-09T17:46:23.682Z,69.70
2018-05-09T17:48:57.353Z,68.80
2018-05-09T17:51:30.939Z,69.00
2018-05-09T17:54:04.479Z,69.60
2018-05-09T17:56:38.047Z,69.40
2018-05-09T17:59:11.555Z,69.10
2018-05-09T18:01:45.879Z,69.60
2018-05-09T18:04:19.564Z,69.60
2018-05-09T18:06:53.115Z,70.50
2018-05-09T18:09:27.591Z,71.30
2018-05-09T18:12:01.115Z,71.30
2018-05-09T18:14:34.793Z,71.40
2018-05-09T18:17:08.291Z,71.70
2018-05-09T18:19:41.771Z,72.20
2018-05-09T18:22:15.284Z,70.00
2018-05-09T18:24:49.071Z,70.80
2018-05-09T18:27:22.623Z,72.00
2018-05-09T18:29:57.108Z,73.00
2018-05-09T18:32:31.419Z,74.00
2018-05-09T18:35:05.174Z,74.00
2018-05-09T18:37:39.518Z,75.70
2018-05-09T18:40:13.254Z,75.70
2018-05-09T18:42:46.947Z,76.30
2018-05-09T18:45:20.565Z,76.80
2018-05-09T18:47:54.115Z,76.90
2018-05-09T18:50:27.671Z,78.30
2018-05-09T18:53:01.261Z,79.20
2018-05-09T18:55:34.976Z,80.90
2018-05-09T18:58:08.551Z,81.90
2018-05-09T19:00:42.111Z,83.20
2018-05-09T19:03:15.744Z,83.40
2018-05-09T19:05:49.383Z,84.00
2018-05-09T19:08:23.737Z,86.50
2018-05-09T19:10:57.416Z,86.50
2018-05-09T19:13:31.000Z,87.60
2018-05-09T19:16:04.498Z,88.40
2018-05-09T19:18:38.061Z,88.90
2018-05-09T19:21:11.690Z,90.00
2018-05-09T19:23:45.227Z,90.50
2018-05-09T19:26:19.619Z,90.60
2018-05-09T19:28:53.223Z,90.60
2018-05-09T19:31:26.840Z,91.50
2018-05-09T19:34:00.384Z,91.80
2018-05-09T19:36:34.740Z,91.70
2018-05-09T19:39:08.397Z,91.60
2018-05-09T19:41:42.074Z,92.30
2018-05-09T19:44:16.303Z,92.60
2018-05-09T19:46:49.976Z,92.60
2018-05-09T19:49:23.550Z,93.30
2018-05-09T19:51:57.149Z,93.60
2018-05-09T19:54:30.667Z,94.10
2018-05-09T19:57:04.248Z,94.10
2018-05-09T19:59:37.836Z,96.90
2018-05-09T20:02:11.460Z,98.60
2018-05-09T20:04:45.047Z,98.50
2018-05-09T20:07:18.593Z,98.40
2018-05-09T20:09:52.144Z,98.10
2018-05-09T20:12:25.647Z,98.00
2018-05-09T20:14:59.241Z,97.70
2018-05-09T20:17:32.845Z,97.70
2018-05-09T20:20:06.368Z,97.70
2018-05-09T20:22:39.964Z,97.30
2018-05-09T20:25:13.502Z,97.30
2018-05-09T20:27:47.966Z,97.00
2018-05-09T20:30:28.075Z,97.40
2018-05-09T20:33:01.674Z,97.40
2018-05-09T20:35:35.457Z,97.20
2018-05-09T20:38:09.040Z,97.60
2018-05-09T20:40:42.609Z,98.00
2018-05-09T20:43:16.936Z,98.20
2018-05-09T20:45:51.455Z,98.20
2018-05-09T20:48:25.341Z,98.20
2018-05-09T20:50:58.875Z,98.60
2018-05-09T20:53:32.467Z,98.80
2018-05-09T20:56:06.056Z,99.10
2018-05-09T20:58:39.547Z,99.50
2018-05-09T21:01:25.121Z,99.10
2018-05-09T21:03:58.648Z,98.70
2018-05-09T21:06:32.263Z,99.90
2018-05-09T21:09:05.900Z,99.90
2018-05-09T21:11:39.490Z,99.90
2018-05-09T21:14:13.019Z,99.90
2018-05-09T21:16:46.544Z,99.90
2018-05-09T21:19:20.140Z,99.90
2018-05-09T21:21:53.664Z,99.90
2018-05-09T21:24:27.245Z,99.90
2018-05-09T21:27:00.786Z,99.90
2018-05-09T21:29:34.277Z,99.90
2018-05-09T21:32:07.878Z,99.90
2018-05-09T21:34:41.447Z,99.90
2018-05-09T21:37:15.000Z,99.90
2018-05-09T21:39:48.551Z,99.90
2018-05-09T21:42:22.295Z,99.90
2018-05-09T21:44:55.872Z,99.90
2018-05-09T21:47:29.452Z,99.90
2018-05-09T21:50:03.059Z,99.90
2018-05-09T21:52:36.736Z,99.90
2018-05-09T21:55:11.065Z,99.90
2018-05-09T21:57:44.752Z,99.90
2018-05-09T22:00:18.384Z,99.90
2018-05-09T22:02:52.021Z,99.90
2018-05-09T22:05:25.519Z,99.90
2018-05-09T22:07:59.101Z,99.90
2018-05-09T22:10:32.683Z,99.90
2018-05-09T22:13:06.252Z,99.90
2018-05-09T22:15:39.907Z,99.90
2018-05-09T22:18:13.583Z,99.90
2018-05-09T22:20:47.172Z,99.90
2018-05-09T22:23:20.729Z,99.90
2018-05-09T22:25:54.408Z,99.90
2018-05-09T22:28:28.859Z,99.90
2018-05-09T22:31:02.551Z,99.90
2018-05-09T22:33:36.203Z,99.90
2018-05-09T22:36:09.803Z,99.90
2018-05-09T22:38:43.336Z,99.90
2018-05-09T22:41:16.940Z,99.90
2018-05-09T22:43:50.537Z,99.90
2018-05-09T22:46:24.127Z,99.90
2018-05-09T22:48:57.727Z,99.90
2018-05-09T22:51:31.267Z,99.90
2018-05-09T22:54:04.838Z,99.90
2018-05-09T22:56:38.410Z,99.90
2018-05-09T22:59:11.949Z,99.90
2018-05-09T23:01:45.461Z,99.90
2018-05-09T23:04:19.055Z,99.90
2018-05-09T23:06:52.604Z,99.90
2018-05-09T23:09:26.224Z,99.90
2018-05-09T23:12:00.527Z,99.90
2018-05-09T23:14:34.100Z,99.90
2018-05-09T23:17:07.689Z,99.90
2018-05-09T23:19:41.204Z,99.90
2018-05-09T23:22:14.811Z,99.90
2018-05-09T23:24:48.368Z,99.90
2018-05-09T23:27:22.008Z,99.90
2018-05-09T23:29:55.580Z,99.90
2018-05-09T23:32:29.124Z,99.90
2018-05-09T23:35:02.672Z,99.90
2018-05-09T23:37:36.200Z,99.90
2018-05-09T23:40:09.749Z,99.90
2018-05-09T23:42:43.244Z,99.90
2018-05-09T23:45:16.804Z,99.90
2018-05-09T23:47:50.343Z,99.90
2018-05-09T23:50:23.916Z,99.90
2018-05-09T23:52:58.251Z,99.90
2018-05-09T23:55:32.448Z,99.90
2018-05-09T23:58:06.112Z,99.90
